Black River (Missouri), Poplar Bluff (07063000)

StateMissouriLatestHigh (1970 cfs)
RiverBlack RiverRatingObservedEstimated
Updated2021-02-27 15:15 (58 minutes ago)Flood - The river is flooding. Obstacles can be treacherous or deadly. The river should be avoided at this stage for casual trips and definitely for the inexperienced. Trips should be attempted only with protective gear and equipment.Flood(none)4097
Discharge1970 cfs (median: 1280 cfs)High - The river is high and potentially dangerous, especially for the young and / or inexperienced. Normal stream obstacles are sometimes difficult to navigate. Extended distances can be attempted, but canoe travel may not be advisable.High(none)1935
Height4.53 feetGood - Conditions are ideal for a canoe or kayak. Boats typically will drag on fewer than one-quarter of riffles, if at all, and portages are unnecessary or rare. Normal float lengths can be attempted without a problem.Good(none)978
TrendFalling (rising over 24 hours)Low - River is low but can still be floated. Some riffles are okay but most come with significant dragging and might need a portage. Float lengths should be reduced to accommodate low flow, dragging, and portages.Low(none)643
USGSExternal icon USGS Site (External icon Google Maps)Poor - River is too low to float comfortably. Most or all riffles will drag or must be portaged and some obstacles (such as slick shelf rock) cause undue problems. Avoid the river at this stage for casual paddling trips.Poor(none)338

Trending Data

Plot Image

Trips for Black River (Missouri), Poplar Bluff (07063000)

DateStartEndDistanceConditionDischargeHeightFishingDetails

A total of 0 rows are displayed.

Condition Descriptions

Fishing Conditions

Fish Species

Notes

Classic Trip List

The classic River Trips application is still available for use. It is updated with the new system using a data retrofit. It is no longer maintained. The original River Trips application is no longer updated (as of 1 Dec 2016) but can be checked for errors or for the condition of the data before it was converted to the new system.

Gauge Data Table

ObservationHeightDischargeMaximum
Discharge
Minimum
Discharge
Mean
Discharge
P05P10P20P25P50
(Median)
P75P80P90P95
2021-02-27 15:15 4.53 1970 5850 (1962) 329 (1963) 1900 645 728 813 977 1280 2860 3190 3790 4160
2021-02-27 14:15 4.59 2000 5850 (1962) 329 (1963) 1900 645 728 813 977 1280 2860 3190 3790 4160
2021-02-27 13:15 4.63 2010 5850 (1962) 329 (1963) 1900 645 728 813 977 1280 2860 3190 3790 4160
2021-02-27 12:15 4.68 2030 5850 (1962) 329 (1963) 1900 645 728 813 977 1280 2860 3190 3790 4160
2021-02-27 11:15 4.69 2030 5850 (1962) 329 (1963) 1900 645 728 813 977 1280 2860 3190 3790 4160
2021-02-27 10:15 4.68 2030 5850 (1962) 329 (1963) 1900 645 728 813 977 1280 2860 3190 3790 4160
2021-02-27 09:15 4.67 2030 5850 (1962) 329 (1963) 1900 645 728 813 977 1280 2860 3190 3790 4160
2021-02-27 08:15 4.65 2020 5850 (1962) 329 (1963) 1900 645 728 813 977 1280 2860 3190 3790 4160
2021-02-27 07:15 4.61 2000 5850 (1962) 329 (1963) 1900 645 728 813 977 1280 2860 3190 3790 4160
2021-02-27 06:15 4.56 1980 5850 (1962) 329 (1963) 1900 645 728 813 977 1280 2860 3190 3790 4160
2021-02-27 05:15 4.50 1960 5850 (1962) 329 (1963) 1900 645 728 813 977 1280 2860 3190 3790 4160
2021-02-27 04:15 4.44 1940 5850 (1962) 329 (1963) 1900 645 728 813 977 1280 2860 3190 3790 4160
2021-02-27 03:15 4.39 1920 5850 (1962) 329 (1963) 1900 645 728 813 977 1280 2860 3190 3790 4160
2021-02-27 02:15 4.34 1900 5850 (1962) 329 (1963) 1900 645 728 813 977 1280 2860 3190 3790 4160
2021-02-27 01:15 4.30 1880 5850 (1962) 329 (1963) 1900 645 728 813 977 1280 2860 3190 3790 4160
2021-02-27 00:15 4.28 1880 5850 (1962) 329 (1963) 1900 645 728 813 977 1280 2860 3190 3790 4160
2021-02-26 23:15 4.27 1870 4820 (1949) 333 (1963) 1920 655 698 815 1000 1350 2620 3170 4280 4660
2021-02-26 22:15 4.26 1870 4820 (1949) 333 (1963) 1920 655 698 815 1000 1350 2620 3170 4280 4660
2021-02-26 21:15 4.27 1870 4820 (1949) 333 (1963) 1920 655 698 815 1000 1350 2620 3170 4280 4660
2021-02-26 20:15 4.27 1870 4820 (1949) 333 (1963) 1920 655 698 815 1000 1350 2620 3170 4280 4660
2021-02-26 19:15 4.28 1880 4820 (1949) 333 (1963) 1920 655 698 815 1000 1350 2620 3170 4280 4660
2021-02-26 18:15 4.29 1880 4820 (1949) 333 (1963) 1920 655 698 815 1000 1350 2620 3170 4280 4660
2021-02-26 17:15 4.31 1890 4820 (1949) 333 (1963) 1920 655 698 815 1000 1350 2620 3170 4280 4660
2021-02-26 16:15 4.32 1890 4820 (1949) 333 (1963) 1920 655 698 815 1000 1350 2620 3170 4280 4660
2021-02-26 15:15 4.34 1900 4820 (1949) 333 (1963) 1920 655 698 815 1000 1350 2620 3170 4280 4660
2021-02-26 14:15 4.34 1900 4820 (1949) 333 (1963) 1920 655 698 815 1000 1350 2620 3170 4280 4660
2021-02-26 13:15 4.34 1900 4820 (1949) 333 (1963) 1920 655 698 815 1000 1350 2620 3170 4280 4660
2021-02-26 12:15 4.34 1900 4820 (1949) 333 (1963) 1920 655 698 815 1000 1350 2620 3170 4280 4660
2021-02-26 11:15 4.33 1900 4820 (1949) 333 (1963) 1920 655 698 815 1000 1350 2620 3170 4280 4660
2021-02-26 10:15 4.29 1880 4820 (1949) 333 (1963) 1920 655 698 815 1000 1350 2620 3170 4280 4660
2021-02-26 09:15 4.25 1870 4820 (1949) 333 (1963) 1920 655 698 815 1000 1350 2620 3170 4280 4660
2021-02-26 08:15 4.18 1840 4820 (1949) 333 (1963) 1920 655 698 815 1000 1350 2620 3170 4280 4660
2021-02-26 07:15 4.11 1810 4820 (1949) 333 (1963) 1920 655 698 815 1000 1350 2620 3170 4280 4660
2021-02-26 06:15 4.02 1780 4820 (1949) 333 (1963) 1920 655 698 815 1000 1350 2620 3170 4280 4660
2021-02-26 05:15 3.93 1740 4820 (1949) 333 (1963) 1920 655 698 815 1000 1350 2620 3170 4280 4660
2021-02-26 04:15 3.84 1710 4820 (1949) 333 (1963) 1920 655 698 815 1000 1350 2620 3170 4280 4660
2021-02-26 03:15 3.76 1680 4820 (1949) 333 (1963) 1920 655 698 815 1000 1350 2620 3170 4280 4660
2021-02-26 02:15 3.69 1650 4820 (1949) 333 (1963) 1920 655 698 815 1000 1350 2620 3170 4280 4660
2021-02-26 01:15 3.65 1640 4820 (1949) 333 (1963) 1920 655 698 815 1000 1350 2620 3170 4280 4660
2021-02-26 00:15 3.61 1620 4820 (1949) 333 (1963) 1920 655 698 815 1000 1350 2620 3170 4280 4660
2021-02-25 23:15 3.61 1620 7070 (2018) 336 (1963) 2010 646 699 878 1030 1440 2710 3160 4270 4870
2021-02-25 22:15 3.60 1620 7070 (2018) 336 (1963) 2010 646 699 878 1030 1440 2710 3160 4270 4870
2021-02-25 21:15 3.61 1620 7070 (2018) 336 (1963) 2010 646 699 878 1030 1440 2710 3160 4270 4870
2021-02-25 20:15 3.60 1620 7070 (2018) 336 (1963) 2010 646 699 878 1030 1440 2710 3160 4270 4870
2021-02-25 19:15 3.59 1610 7070 (2018) 336 (1963) 2010 646 699 878 1030 1440 2710 3160 4270 4870
2021-02-25 18:15 3.62 1630 7070 (2018) 336 (1963) 2010 646 699 878 1030 1440 2710 3160 4270 4870
2021-02-25 17:15 3.61 1620 7070 (2018) 336 (1963) 2010 646 699 878 1030 1440 2710 3160 4270 4870
2021-02-25 16:15 3.61 1620 7070 (2018) 336 (1963) 2010 646 699 878 1030 1440 2710 3160 4270 4870
2021-02-25 15:15 3.61 1620 7070 (2018) 336 (1963) 2010 646 699 878 1030 1440 2710 3160 4270 4870
2021-02-25 14:15 3.62 1630 7070 (2018) 336 (1963) 2010 646 699 878 1030 1440 2710 3160 4270 4870
2021-02-25 13:15 3.60 1620 7070 (2018) 336 (1963) 2010 646 699 878 1030 1440 2710 3160 4270 4870
2021-02-25 12:15 3.61 1620 7070 (2018) 336 (1963) 2010 646 699 878 1030 1440 2710 3160 4270 4870
2021-02-25 11:15 3.60 1620 7070 (2018) 336 (1963) 2010 646 699 878 1030 1440 2710 3160 4270 4870
2021-02-25 10:15 3.61 1620 7070 (2018) 336 (1963) 2010 646 699 878 1030 1440 2710 3160 4270 4870
2021-02-25 09:15 3.61 1620 7070 (2018) 336 (1963) 2010 646 699 878 1030 1440 2710 3160 4270 4870
2021-02-25 08:15 3.58 1610 7070 (2018) 336 (1963) 2010 646 699 878 1030 1440 2710 3160 4270 4870
2021-02-25 07:15 3.57 1610 7070 (2018) 336 (1963) 2010 646 699 878 1030 1440 2710 3160 4270 4870
2021-02-25 06:15 3.58 1610 7070 (2018) 336 (1963) 2010 646 699 878 1030 1440 2710 3160 4270 4870
2021-02-25 05:15 3.58 1610 7070 (2018) 336 (1963) 2010 646 699 878 1030 1440 2710 3160 4270 4870
2021-02-25 04:15 3.57 1610 7070 (2018) 336 (1963) 2010 646 699 878 1030 1440 2710 3160 4270 4870
2021-02-25 03:15 3.56 1600 7070 (2018) 336 (1963) 2010 646 699 878 1030 1440 2710 3160 4270 4870
2021-02-25 02:15 3.55 1600 7070 (2018) 336 (1963) 2010 646 699 878 1030 1440 2710 3160 4270 4870
2021-02-25 01:15 3.54 1590 7070 (2018) 336 (1963) 2010 646 699 878 1030 1440 2710 3160 4270 4870
2021-02-25 00:15 3.53 1590 7070 (2018) 336 (1963) 2010 646 699 878 1030 1440 2710 3160 4270 4870
2021-02-24 23:15 3.53 1590 6690 (1985) 338 (1963) 1950 652 701 870 997 1570 2490 3100 4200 4590
2021-02-24 22:15 3.51 1580 6690 (1985) 338 (1963) 1950 652 701 870 997 1570 2490 3100 4200 4590
2021-02-24 21:15 3.49 1580 6690 (1985) 338 (1963) 1950 652 701 870 997 1570 2490 3100 4200 4590
2021-02-24 20:15 3.47 1570 6690 (1985) 338 (1963) 1950 652 701 870 997 1570 2490 3100 4200 4590
2021-02-24 19:15 3.45 1560 6690 (1985) 338 (1963) 1950 652 701 870 997 1570 2490 3100 4200 4590
2021-02-24 18:15 3.42 1550 6690 (1985) 338 (1963) 1950 652 701 870 997 1570 2490 3100 4200 4590
2021-02-24 17:15 3.40 1540 6690 (1985) 338 (1963) 1950 652 701 870 997 1570 2490 3100 4200 4590
2021-02-24 16:15 3.37 1530 6690 (1985) 338 (1963) 1950 652 701 870 997 1570 2490 3100 4200 4590
2021-02-24 15:15 3.34 1520 6690 (1985) 338 (1963) 1950 652 701 870 997 1570 2490 3100 4200 4590
2021-02-24 14:15 3.32 1510 6690 (1985) 338 (1963) 1950 652 701 870 997 1570 2490 3100 4200 4590
2021-02-24 13:15 3.28 1500 6690 (1985) 338 (1963) 1950 652 701 870 997 1570 2490 3100 4200 4590
2021-02-24 12:15 3.25 1490 6690 (1985) 338 (1963) 1950 652 701 870 997 1570 2490 3100 4200 4590
2021-02-24 11:15 3.21 1470 6690 (1985) 338 (1963) 1950 652 701 870 997 1570 2490 3100 4200 4590
2021-02-24 10:15 3.18 1460 6690 (1985) 338 (1963) 1950 652 701 870 997 1570 2490 3100 4200 4590
2021-02-24 09:15 3.16 1450 6690 (1985) 338 (1963) 1950 652 701 870 997 1570 2490 3100 4200 4590
2021-02-24 08:15 3.13 1440 6690 (1985) 338 (1963) 1950 652 701 870 997 1570 2490 3100 4200 4590
2021-02-24 07:15 3.10 1430 6690 (1985) 338 (1963) 1950 652 701 870 997 1570 2490 3100 4200 4590
2021-02-24 06:15 3.07 1420 6690 (1985) 338 (1963) 1950 652 701 870 997 1570 2490 3100 4200 4590
2021-02-24 05:15 3.05 1410 6690 (1985) 338 (1963) 1950 652 701 870 997 1570 2490 3100 4200 4590
2021-02-24 04:15 3.03 1400 6690 (1985) 338 (1963) 1950 652 701 870 997 1570 2490 3100 4200 4590
2021-02-24 03:15 3.02 1400 6690 (1985) 338 (1963) 1950 652 701 870 997 1570 2490 3100 4200 4590
2021-02-24 02:15 3.01 1390 6690 (1985) 338 (1963) 1950 652 701 870 997 1570 2490 3100 4200 4590
2021-02-24 01:15 2.99 1390 6690 (1985) 338 (1963) 1950 652 701 870 997 1570 2490 3100 4200 4590
2021-02-24 00:15 2.99 1390 6690 (1985) 338 (1963) 1950 652 701 870 997 1570 2490 3100 4200 4590
2021-02-23 23:15 2.98 1380 5380 (1985) 348 (1963) 1990 628 688 823 958 1440 2920 3500 4070 4510
2021-02-23 22:15 2.98 1380 5380 (1985) 348 (1963) 1990 628 688 823 958 1440 2920 3500 4070 4510
2021-02-23 21:15 2.97 1380 5380 (1985) 348 (1963) 1990 628 688 823 958 1440 2920 3500 4070 4510
2021-02-23 20:15 2.98 1380 5380 (1985) 348 (1963) 1990 628 688 823 958 1440 2920 3500 4070 4510
2021-02-23 19:15 2.99 1390 5380 (1985) 348 (1963) 1990 628 688 823 958 1440 2920 3500 4070 4510
2021-02-23 18:15 2.98 1380 5380 (1985) 348 (1963) 1990 628 688 823 958 1440 2920 3500 4070 4510
2021-02-23 17:15 2.99 1390 5380 (1985) 348 (1963) 1990 628 688 823 958 1440 2920 3500 4070 4510
2021-02-23 16:15 3.00 1390 5380 (1985) 348 (1963) 1990 628 688 823 958 1440 2920 3500 4070 4510
2021-02-23 15:15 3.01 1390 5380 (1985) 348 (1963) 1990 628 688 823 958 1440 2920 3500 4070 4510
2021-02-23 14:15 3.01 1390 5380 (1985) 348 (1963) 1990 628 688 823 958 1440 2920 3500 4070 4510
2021-02-23 13:15 3.02 1400 5380 (1985) 348 (1963) 1990 628 688 823 958 1440 2920 3500 4070 4510
2021-02-23 12:15 3.05 1410 5380 (1985) 348 (1963) 1990 628 688 823 958 1440 2920 3500 4070 4510
2021-02-23 11:15 3.06 1410 5380 (1985) 348 (1963) 1990 628 688 823 958 1440 2920 3500 4070 4510
2021-02-23 10:15 3.08 1420 5380 (1985) 348 (1963) 1990 628 688 823 958 1440 2920 3500 4070 4510
2021-02-23 09:15 3.10 1430 5380 (1985) 348 (1963) 1990 628 688 823 958 1440 2920 3500 4070 4510
2021-02-23 08:15 3.12 1440 5380 (1985) 348 (1963) 1990 628 688 823 958 1440 2920 3500 4070 4510
2021-02-23 07:15 3.15 1450 5380 (1985) 348 (1963) 1990 628 688 823 958 1440 2920 3500 4070 4510
2021-02-23 06:15 3.16 1450 5380 (1985) 348 (1963) 1990 628 688 823 958 1440 2920 3500 4070 4510
2021-02-23 05:15 3.17 1460 5380 (1985) 348 (1963) 1990 628 688 823 958 1440 2920 3500 4070 4510
2021-02-23 04:15 3.19 1460 5380 (1985) 348 (1963) 1990 628 688 823 958 1440 2920 3500 4070 4510
2021-02-23 03:15 3.18 1460 5380 (1985) 348 (1963) 1990 628 688 823 958 1440 2920 3500 4070 4510
2021-02-23 02:15 3.18 1460 5380 (1985) 348 (1963) 1990 628 688 823 958 1440 2920 3500 4070 4510
2021-02-23 01:15 3.15 1450 5380 (1985) 348 (1963) 1990 628 688 823 958 1440 2920 3500 4070 4510
2021-02-23 00:15 3.11 1430 5380 (1985) 348 (1963) 1990 628 688 823 958 1440 2920 3500 4070 4510
2021-02-22 23:15 3.07 1420 4770 (1949) 360 (1963) 1940 569 709 874 999 1620 2730 3170 3890 4450
2021-02-22 22:15 3.00 1390 4770 (1949) 360 (1963) 1940 569 709 874 999 1620 2730 3170 3890 4450
2021-02-22 21:15 2.94 1370 4770 (1949) 360 (1963) 1940 569 709 874 999 1620 2730 3170 3890 4450
2021-02-22 20:15 2.90 1350 4770 (1949) 360 (1963) 1940 569 709 874 999 1620 2730 3170 3890 4450
2021-02-22 19:15 2.83 1330 4770 (1949) 360 (1963) 1940 569 709 874 999 1620 2730 3170 3890 4450
2021-02-22 18:15 2.80 1320 4770 (1949) 360 (1963) 1940 569 709 874 999 1620 2730 3170 3890 4450
2021-02-22 17:15 2.75 1300 4770 (1949) 360 (1963) 1940 569 709 874 999 1620 2730 3170 3890 4450
2021-02-22 16:15 2.72 1290 4770 (1949) 360 (1963) 1940 569 709 874 999 1620 2730 3170 3890 4450
2021-02-22 15:15 2.69 1280 4770 (1949) 360 (1963) 1940 569 709 874 999 1620 2730 3170 3890 4450
2021-02-22 14:15 2.67 1270 4770 (1949) 360 (1963) 1940 569 709 874 999 1620 2730 3170 3890 4450
2021-02-22 13:15 2.66 1260 4770 (1949) 360 (1963) 1940 569 709 874 999 1620 2730 3170 3890 4450
2021-02-22 12:15 2.65 1260 4770 (1949) 360 (1963) 1940 569 709 874 999 1620 2730 3170 3890 4450
2021-02-22 11:15 2.63 1250 4770 (1949) 360 (1963) 1940 569 709 874 999 1620 2730 3170 3890 4450
2021-02-22 10:15 2.63 1250 4770 (1949) 360 (1963) 1940 569 709 874 999 1620 2730 3170 3890 4450
2021-02-22 09:15 2.62 1250 4770 (1949) 360 (1963) 1940 569 709 874 999 1620 2730 3170 3890 4450
2021-02-22 08:15 2.62 1250 4770 (1949) 360 (1963) 1940 569 709 874 999 1620 2730 3170 3890 4450
2021-02-22 07:15 2.60 1240 4770 (1949) 360 (1963) 1940 569 709 874 999 1620 2730 3170 3890 4450
2021-02-22 06:15 2.60 1240 4770 (1949) 360 (1963) 1940 569 709 874 999 1620 2730 3170 3890 4450
2021-02-22 05:15 2.59 1240 4770 (1949) 360 (1963) 1940 569 709 874 999 1620 2730 3170 3890 4450
2021-02-22 04:15 2.58 1230 4770 (1949) 360 (1963) 1940 569 709 874 999 1620 2730 3170 3890 4450
2021-02-22 03:15 2.57 1230 4770 (1949) 360 (1963) 1940 569 709 874 999 1620 2730 3170 3890 4450
2021-02-22 02:15 2.56 1230 4770 (1949) 360 (1963) 1940 569 709 874 999 1620 2730 3170 3890 4450
2021-02-22 01:15 2.56 1230 4770 (1949) 360 (1963) 1940 569 709 874 999 1620 2730 3170 3890 4450
2021-02-22 00:15 2.56 1230 4770 (1949) 360 (1963) 1940 569 709 874 999 1620 2730 3170 3890 4450
2021-02-21 23:15 2.54 1220 5880 (1951) 366 (1963) 1830 575 721 900 956 1410 2310 2970 3890 4340
2021-02-21 22:15 2.54 1220 5880 (1951) 366 (1963) 1830 575 721 900 956 1410 2310 2970 3890 4340
2021-02-21 21:15 2.54 1220 5880 (1951) 366 (1963) 1830 575 721 900 956 1410 2310 2970 3890 4340
2021-02-21 20:15 2.53 1220 5880 (1951) 366 (1963) 1830 575 721 900 956 1410 2310 2970 3890 4340
2021-02-21 19:15 2.54 1220 5880 (1951) 366 (1963) 1830 575 721 900 956 1410 2310 2970 3890 4340
2021-02-21 18:15 2.53 1220 5880 (1951) 366 (1963) 1830 575 721 900 956 1410 2310 2970 3890 4340
2021-02-21 17:15 2.53 1220 5880 (1951) 366 (1963) 1830 575 721 900 956 1410 2310 2970 3890 4340
2021-02-21 16:15 2.52 1210 5880 (1951) 366 (1963) 1830 575 721 900 956 1410 2310 2970 3890 4340
2021-02-21 15:15 2.52 1210 5880 (1951) 366 (1963) 1830 575 721 900 956 1410 2310 2970 3890 4340
2021-02-21 14:15 2.52 1210 5880 (1951) 366 (1963) 1830 575 721 900 956 1410 2310 2970 3890 4340
2021-02-21 13:15 2.52 1210 5880 (1951) 366 (1963) 1830 575 721 900 956 1410 2310 2970 3890 4340
2021-02-21 12:15 2.51 1210 5880 (1951) 366 (1963) 1830 575 721 900 956 1410 2310 2970 3890 4340
2021-02-21 11:15 2.51 1210 5880 (1951) 366 (1963) 1830 575 721 900 956 1410 2310 2970 3890 4340
2021-02-21 10:15 2.52 1210 5880 (1951) 366 (1963) 1830 575 721 900 956 1410 2310 2970 3890 4340
2021-02-21 09:15 2.52 1210 5880 (1951) 366 (1963) 1830 575 721 900 956 1410 2310 2970 3890 4340
2021-02-21 08:15 2.51 1210 5880 (1951) 366 (1963) 1830 575 721 900 956 1410 2310 2970 3890 4340
2021-02-21 07:15 2.50 1200 5880 (1951) 366 (1963) 1830 575 721 900 956 1410 2310 2970 3890 4340
2021-02-21 06:15 2.52 1210 5880 (1951) 366 (1963) 1830 575 721 900 956 1410 2310 2970 3890 4340
2021-02-21 05:15 2.51 1210 5880 (1951) 366 (1963) 1830 575 721 900 956 1410 2310 2970 3890 4340
2021-02-21 04:15 2.51 1210 5880 (1951) 366 (1963) 1830 575 721 900 956 1410 2310 2970 3890 4340
2021-02-21 03:15 2.50 1200 5880 (1951) 366 (1963) 1830 575 721 900 956 1410 2310 2970 3890 4340
2021-02-21 02:15 2.51 1210 5880 (1951) 366 (1963) 1830 575 721 900 956 1410 2310 2970 3890 4340
2021-02-21 01:15 2.50 1200 5880 (1951) 366 (1963) 1830 575 721 900 956 1410 2310 2970 3890 4340
2021-02-21 00:15 2.51 1210 5880 (1951) 366 (1963) 1830 575 721 900 956 1410 2310 2970 3890 4340
2021-02-20 23:15 2.50 1200 4980 (1949) 371 (1963) 1760 610 696 858 907 1270 2280 2810 3790 4280
2021-02-20 22:15 2.50 1200 4980 (1949) 371 (1963) 1760 610 696 858 907 1270 2280 2810 3790 4280
2021-02-20 21:15 2.49 1200 4980 (1949) 371 (1963) 1760 610 696 858 907 1270 2280 2810 3790 4280
2021-02-20 20:15 2.49 1200 4980 (1949) 371 (1963) 1760 610 696 858 907 1270 2280 2810 3790 4280
2021-02-20 19:15 2.49 1200 4980 (1949) 371 (1963) 1760 610 696 858 907 1270 2280 2810 3790 4280
2021-02-20 18:15 2.49 1200 4980 (1949) 371 (1963) 1760 610 696 858 907 1270 2280 2810 3790 4280
2021-02-20 17:15 2.48 1200 4980 (1949) 371 (1963) 1760 610 696 858 907 1270 2280 2810 3790 4280
2021-02-20 16:15 2.48 1200 4980 (1949) 371 (1963) 1760 610 696 858 907 1270 2280 2810 3790 4280
2021-02-20 15:15 2.47 1190 4980 (1949) 371 (1963) 1760 610 696 858 907 1270 2280 2810 3790 4280
2021-02-20 14:15 2.47 1190 4980 (1949) 371 (1963) 1760 610 696 858 907 1270 2280 2810 3790 4280
2021-02-20 13:15 2.45 1190 4980 (1949) 371 (1963) 1760 610 696 858 907 1270 2280 2810 3790 4280
2021-02-20 12:15 2.45 1190 4980 (1949) 371 (1963) 1760 610 696 858 907 1270 2280 2810 3790 4280
2021-02-20 11:15 2.44 1180 4980 (1949) 371 (1963) 1760 610 696 858 907 1270 2280 2810 3790 4280
2021-02-20 10:15 2.43 1180 4980 (1949) 371 (1963) 1760 610 696 858 907 1270 2280 2810 3790 4280
2021-02-20 09:15 2.42 1170 4980 (1949) 371 (1963) 1760 610 696 858 907 1270 2280 2810 3790 4280
2021-02-20 08:15 2.40 1170 4980 (1949) 371 (1963) 1760 610 696 858 907 1270 2280 2810 3790 4280
2021-02-20 07:15 2.39 1160 4980 (1949) 371 (1963) 1760 610 696 858 907 1270 2280 2810 3790 4280
2021-02-20 06:15 2.38 1160 4980 (1949) 371 (1963) 1760 610 696 858 907 1270 2280 2810 3790 4280
2021-02-20 05:15 2.38 1160 4980 (1949) 371 (1963) 1760 610 696 858 907 1270 2280 2810 3790 4280
2021-02-20 04:15 2.37 1160 4980 (1949) 371 (1963) 1760 610 696 858 907 1270 2280 2810 3790 4280
2021-02-20 03:15 2.35 1150 4980 (1949) 371 (1963) 1760 610 696 858 907 1270 2280 2810 3790 4280
2021-02-20 02:15 2.34 1150 4980 (1949) 371 (1963) 1760 610 696 858 907 1270 2280 2810 3790 4280
2021-02-20 01:15 2.33 1140 4980 (1949) 371 (1963) 1760 610 696 858 907 1270 2280 2810 3790 4280
2021-02-20 00:15 2.33 1140 4980 (1949) 371 (1963) 1760 610 696 858 907 1270 2280 2810 3790 4280

A total of 184 rows are displayed for years 1949 through 2020.